PK731 / AP-BMS 7700 Squawk Report (10th of October, 2018)

Aircraft B77W Reg No. AP-BMS Age 9 years old
Model 777 Jet engines 2 First flight 06-04-09
Registered 26-07-17 Rollout 17-03-09 Delivered 23-04-09
Construction No. 35782 Line No. 0778 Series 3Q8(ER)
ADSHEX 7609B3 Airline name Pakistan International Airlines (PIA) Owner Wells Fargo Trust Co NA Trustee
Airfield based Karachi~ ~AP First tracked 2017-07-27 02:58:03

Flight history for AP-BMS

Time Lat Lon Altitude Heading Speed Vertical Rate
2018-10-10 19:39:27 GMT 24.138081 43.533222 36,000 244 437 0
2018-10-10 19:39:15 GMT 24.148508 43.555763 35,975 244 437 0
2018-10-10 19:39:04 GMT 24.158203 43.576710 35,975 244 437 0
2018-10-10 19:38:54 GMT 24.168060 43.598103 35,975 244 437 0
2018-10-10 19:38:41 GMT 24.179306 43.622387 35,975 244 437 0
2018-10-10 19:38:32 GMT 24.188187 43.641407 35,975 244 437 0
2018-10-10 19:38:21 GMT 24.197845 43.662567 36,000 244 437 0
2018-10-10 19:38:11 GMT 24.207071 43.682522 36,000 244 438 0
2018-10-10 19:38:00 GMT 24.216888 43.703918 36,000 244 438 0
2018-10-10 19:37:50 GMT 24.226576 43.724911 36,000 244 438 0
2018-10-10 19:37:39 GMT 24.236353 43.746056 35,975 244 438 0
2018-10-10 19:37:28 GMT 24.245941 43.766834 35,975 244 438 0
2018-10-10 19:37:17 GMT 24.256416 43.789639 36,000 244 438 0
2018-10-10 19:37:06 GMT 24.266237 43.811043 36,000 244 438 0
2018-10-10 19:36:56 GMT 24.275436 43.831226 35,975 244 438 0
2018-10-10 19:36:46 GMT 24.284719 43.851254 36,000 244 438 0
2018-10-10 19:36:35 GMT 24.294708 43.873035 36,000 244 438 0
2018-10-10 19:36:23 GMT 24.305157 43.895771 36,000 244 437 0
2018-10-10 19:36:13 GMT 24.314793 43.916759 36,000 244 437 0
2018-10-10 19:36:01 GMT 24.325127 43.939301 36,000 244 437 0
2018-10-10 19:35:51 GMT 24.334396 43.959454 35,975 244 436 0
2018-10-10 19:35:41 GMT 24.343609 43.979568 35,975 244 436 0
2018-10-10 19:35:30 GMT 24.353485 44.001110 35,975 244 436 0
2018-10-10 19:35:19 GMT 24.363052 44.022015 36,000 244 436 0
2018-10-10 19:35:08 GMT 24.373306 44.044544 36,000 244 436 0
2018-10-10 19:34:58 GMT 24.382248 44.064091 36,000 244 436 0
2018-10-10 19:34:47 GMT 24.392443 44.086372 36,000 244 436 0
2018-10-10 19:34:36 GMT 24.401733 44.106647 36,000 244 435 0
2018-10-10 19:34:26 GMT 24.410843 44.126537 36,000 244 434 0
2018-10-10 19:34:15 GMT 24.421051 44.148815 36,000 244 434 0
2018-10-10 19:34:04 GMT 24.430664 44.169872 36,000 244 434 0
2018-10-10 19:33:54 GMT 24.440186 44.190777 35,975 244 434 0
2018-10-10 19:33:43 GMT 24.450167 44.212612 35,975 244 434 0
2018-10-10 19:33:33 GMT 24.459059 44.232098 35,975 244 434 0
2018-10-10 19:33:22 GMT 24.468933 44.253796 35,975 244 434 0
2018-10-10 19:33:11 GMT 24.478546 44.274902 36,000 244 435 0
2018-10-10 19:33:01 GMT 24.487782 44.295216 36,000 244 435 0
2018-10-10 19:32:50 GMT 24.497314 44.316151 35,975 244 435 0
2018-10-10 19:32:40 GMT 24.506821 44.337090 36,000 244 435 0
2018-10-10 19:32:29 GMT 24.516317 44.358078 35,975 244 435 0
2018-10-10 19:32:18 GMT 24.525908 44.379223 35,975 244 435 0
2018-10-10 19:32:07 GMT 24.535728 44.400780 35,975 244 435 0
2018-10-10 19:31:57 GMT 24.545151 44.421539 36,000 244 435 0
2018-10-10 19:31:46 GMT 24.555002 44.443272 35,975 244 435 0
2018-10-10 19:31:35 GMT 24.565063 44.465435 35,975 244 435 0
2018-10-10 19:31:24 GMT 24.574631 44.486542 35,975 244 435 0
2018-10-10 19:31:12 GMT 24.585434 44.510296 36,000 244 435 0
2018-10-10 19:31:02 GMT 24.594292 44.529869 35,975 244 435 0
2018-10-10 19:30:52 GMT 24.603603 44.550442 35,975 244 435 0
2018-10-10 19:30:41 GMT 24.613192 44.571587 36,000 244 435 0
2018-10-10 19:30:30 GMT 24.623108 44.593559 36,000 244 435 0
2018-10-10 19:30:19 GMT 24.632767 44.614868 36,000 244 435 0
2018-10-10 19:30:09 GMT 24.641775 44.634861 36,000 244 435 0
2018-10-10 19:29:56 GMT 24.653088 44.659943 35,975 244 435 0
2018-10-10 19:29:48 GMT 24.660862 44.677147 35,975 244 435 0
2018-10-10 19:29:37 GMT 24.670395 44.698284 35,975 244 435 0
2018-10-10 19:29:27 GMT 24.679596 44.718678 35,975 244 435 0
2018-10-10 19:29:15 GMT 24.689772 44.741199 36,000 244 434 0
2018-10-10 19:29:05 GMT 24.698895 44.761410 36,000 244 434 0
2018-10-10 19:28:53 GMT 24.709488 44.784901 35,975 244 434 0
2018-10-10 19:28:38 GMT 24.722900 44.814808 35,975 244 434 0
2018-10-10 19:28:33 GMT 24.727707 44.825489 35,975 244 434 0
2018-10-10 19:28:22 GMT 24.736954 44.846039 36,000 244 434 0
2018-10-10 19:28:12 GMT 24.746099 44.866455 35,975 244 434 0
2018-10-10 19:28:00 GMT 24.756271 44.889172 36,000 244 433 0
2018-10-10 19:27:49 GMT 24.766525 44.911907 36,000 244 433 0
2018-10-10 19:27:40 GMT 24.774775 44.930248 36,000 244 433 0
2018-10-10 19:27:29 GMT 24.783993 44.950821 36,000 244 433 0
2018-10-10 19:27:19 GMT 24.793209 44.971394 36,000 244 433 0
2018-10-10 19:27:08 GMT 24.802706 44.992538 35,975 244 433 0
2018-10-10 19:26:57 GMT 24.812622 45.014648 35,975 244 433 0
2018-10-10 19:26:47 GMT 24.821699 45.034824 35,975 244 433 0
2018-10-10 19:26:36 GMT 24.831345 45.056408 35,975 244 433 0
2018-10-10 19:26:25 GMT 24.840693 45.077370 36,000 244 434 0
2018-10-10 19:26:15 GMT 24.849724 45.097530 36,000 244 434 0
2018-10-10 19:26:04 GMT 24.859362 45.119141 36,000 244 434 0
2018-10-10 19:25:53 GMT 24.869183 45.141113 36,000 244 434 0
2018-10-10 19:25:43 GMT 24.878214 45.161324 36,000 244 434 0
2018-10-10 19:25:32 GMT 24.887787 45.182697 36,000 244 434 0
2018-10-10 19:25:22 GMT 24.896975 45.203300 36,000 244 434 0
2018-10-10 19:25:11 GMT 24.906471 45.224701 35,975 245 433 0
2018-10-10 19:25:00 GMT 24.915665 45.245258 36,000 245 433 0
2018-10-10 19:24:50 GMT 24.924906 45.266056 36,000 244 432 0
2018-10-10 19:24:39 GMT 24.934729 45.288029 36,000 244 432 0
2018-10-10 19:24:28 GMT 24.943993 45.308807 36,000 244 433 0
2018-10-10 19:24:17 GMT 24.953522 45.330200 35,975 245 433 0
2018-10-10 19:24:07 GMT 24.962860 45.351208 35,975 245 433 0
2018-10-10 19:23:56 GMT 24.972107 45.372009 35,975 245 433 0
2018-10-10 19:23:46 GMT 24.981445 45.393017 36,000 245 433 0
2018-10-10 19:23:35 GMT 24.990730 45.414059 36,000 245 433 0
2018-10-10 19:23:24 GMT 25.000320 45.435669 35,975 245 433 0
2018-10-10 19:23:14 GMT 25.009630 45.456657 35,975 245 433 0
2018-10-10 19:23:03 GMT 25.019035 45.477905 36,000 245 433 0
2018-10-10 19:22:57 GMT 25.025738 45.492935 36,000 245 433 0
2018-10-10 19:22:53 GMT 25.028183 45.498505 36,000 245 433 0
2018-10-10 19:22:42 GMT 25.037609 45.519726 36,000 245 433 0
2018-10-10 19:22:34 GMT 25.045244 45.536930 35,975 245 433 0
2018-10-10 19:22:31 GMT 25.047012 45.540920 35,975 245 433 0
2018-10-10 19:22:25 GMT 25.052811 45.553997 35,975 245 433 0
2018-10-10 19:22:21 GMT 25.056335 45.561932 36,000 245 433 0
2018-10-10 19:22:14 GMT 25.062609 45.576214 36,000 245 433 0
2018-10-10 19:22:10 GMT 25.065857 45.583546 36,000 245 432 0
2018-10-10 19:22:05 GMT 25.070753 45.594608 36,000 245 432 0
2018-10-10 19:21:59 GMT 25.075409 45.605129 35,975 245 432 0
2018-10-10 19:21:53 GMT 25.080826 45.617420 35,975 245 432 0
2018-10-10 19:21:48 GMT 25.084534 45.625713 35,975 245 432 0
2018-10-10 19:21:44 GMT 25.089935 45.638020 35,975 245 432 0
2018-10-10 19:21:38 GMT 25.093597 45.646313 35,975 245 432 0
2018-10-10 19:21:32 GMT 25.098862 45.658215 36,000 245 432 0
2018-10-10 19:21:27 GMT 25.102875 45.667316 36,000 245 432 0
2018-10-10 19:21:16 GMT 25.112604 45.689289 35,975 245 432 0
2018-10-10 19:21:05 GMT 25.122614 45.712090 36,000 245 432 0
2018-10-10 19:21:01 GMT 25.126104 45.719967 36,000 245 432 0
2018-10-10 19:20:52 GMT 25.135162 45.740559 35,975 245 431 0
2018-10-10 19:20:43 GMT 25.141792 45.755623 36,000 245 431 0
2018-10-10 19:20:33 GMT 25.150406 45.775196 36,000 245 431 0
2018-10-10 19:20:30 GMT 25.153519 45.782318 36,000 245 431 0
2018-10-10 19:20:21 GMT 25.162647 45.803040 36,000 245 431 0
2018-10-10 19:20:12 GMT 25.180849 45.844341 36,000 245 431 0
2018-10-10 19:20:00 GMT 25.180849 45.844341 36,000 245 431 0
2018-10-10 19:19:48 GMT 25.189316 45.863495 36,000 245 430 0
2018-10-10 19:19:40 GMT 25.196678 45.880253 36,000 245 429 0
2018-10-10 19:19:36 GMT 25.200775 45.889530 36,000 245 429 0
2018-10-10 19:19:28 GMT 25.208130 45.906319 36,000 245 429 0
2018-10-10 19:19:16 GMT 25.217113 45.926842 35,975 245 429 0
2018-10-10 19:19:06 GMT 25.226669 45.948536 35,975 245 429 0
2018-10-10 19:18:57 GMT 25.233315 45.963737 36,000 245 429 0
2018-10-10 19:18:46 GMT 25.243092 45.985970 36,000 245 428 0
2018-10-10 19:18:35 GMT 25.252541 46.007477 36,000 245 428 0
2018-10-10 19:18:25 GMT 25.261688 46.028339 35,975 245 428 0
2018-10-10 19:18:14 GMT 25.271162 46.049973 35,975 245 428 0
2018-10-10 19:18:03 GMT 25.280228 46.070660 35,975 245 428 0
2018-10-10 19:17:52 GMT 25.289642 46.092361 36,000 245 428 0
2018-10-10 19:17:41 GMT 25.298767 46.113232 36,000 245 429 0
2018-10-10 19:17:31 GMT 25.308197 46.134747 36,000 245 429 0
2018-10-10 19:17:23 GMT 25.315666 46.151855 35,975 245 429 0
2018-10-10 19:17:20 GMT 25.317581 46.156208 35,975 245 429 0
2018-10-10 19:17:09 GMT 25.327057 46.177929 35,975 245 429 0
2018-10-10 19:16:58 GMT 25.336615 46.199841 36,000 245 429 0
2018-10-10 19:16:51 GMT 25.342108 46.212540 35,975 245 429 0
2018-10-10 19:16:47 GMT 25.346157 46.221813 35,975 245 429 0
2018-10-10 19:16:39 GMT 25.352142 46.235657 35,975 245 429 0
2018-10-10 19:16:33 GMT 25.357887 46.248917 35,975 245 429 0
2018-10-10 19:16:29 GMT 25.361526 46.257221 35,975 245 430 0
2018-10-10 19:16:22 GMT 25.366920 46.269646 36,000 245 429 0
2018-10-10 19:16:19 GMT 25.370132 46.276958 35,975 245 429 0
2018-10-10 19:16:12 GMT 25.376137 46.290791 36,000 245 429 0
2018-10-10 19:16:08 GMT 25.380432 46.300659 36,000 245 429 0
2018-10-10 19:15:59 GMT 25.387403 46.316650 36,000 245 429 0
2018-10-10 19:15:50 GMT 25.395411 46.335045 36,000 245 429 0
2018-10-10 19:15:38 GMT 25.405884 46.359093 36,000 245 428 0
2018-10-10 19:15:35 GMT 25.408026 46.364067 36,000 245 428 0
2018-10-10 19:15:28 GMT 25.414495 46.378838 36,000 245 428 0
2018-10-10 19:15:23 GMT 25.417568 46.385937 36,000 245 428 0
2018-10-10 19:15:18 GMT 25.423141 46.398773 35,975 245 428 0
2018-10-10 19:15:06 GMT 25.432755 46.420849 35,975 245 428 0
2018-10-10 19:14:55 GMT 25.442001 46.442211 35,975 245 428 0
2018-10-10 19:14:44 GMT 25.451412 46.463928 36,000 245 428 0
2018-10-10 19:14:36 GMT 25.458572 46.480511 35,975 245 428 0
2018-10-10 19:14:33 GMT 25.460722 46.485435 35,975 245 428 0
2018-10-10 19:14:22 GMT 25.469707 46.506165 35,975 245 428 0
2018-10-10 19:14:12 GMT 25.479017 46.527721 36,000 245 428 0
2018-10-10 19:14:04 GMT 25.485813 46.543320 36,000 245 428 0
2018-10-10 19:14:01 GMT 25.488094 46.548656 36,000 245 428 0
2018-10-10 19:13:50 GMT 25.506903 46.592087 35,975 245 427 0
2018-10-10 19:13:39 GMT 25.506903 46.592087 35,975 245 427 0
2018-10-10 19:13:28 GMT 25.515976 46.613007 35,975 245 427 0
2018-10-10 19:13:17 GMT 25.525223 46.634418 35,975 245 426 0
2018-10-10 19:13:07 GMT 25.533949 46.654686 35,975 245 425 0
2018-10-10 19:12:56 GMT 25.543259 46.676228 36,000 245 424 0
2018-10-10 19:12:53 GMT 25.546005 46.682636 36,000 245 423 0
2018-10-10 19:12:44 GMT 25.553146 46.699219 36,000 245 421 0
2018-10-10 19:12:39 GMT 25.557953 46.710308 36,000 245 420 0
2018-10-10 19:12:34 GMT 25.562027 46.719818 35,975 245 420 0
2018-10-10 19:12:30 GMT 25.565466 46.727806 36,000 245 420 0
2018-10-10 19:12:23 GMT 25.570957 46.740452 36,000 245 420 0
2018-10-10 19:12:19 GMT 25.574524 46.748810 36,000 245 421 0
2018-10-10 19:12:11 GMT 25.582397 46.767071 36,000 245 421 0
2018-10-10 19:11:59 GMT 25.591440 46.788078 36,000 245 421 0
2018-10-10 19:11:49 GMT 25.600891 46.810047 35,975 245 421 0
2018-10-10 19:11:39 GMT 25.608261 46.827190 36,000 245 421 0
2018-10-10 19:11:30 GMT 25.615677 46.844532 36,000 245 421 0
2018-10-10 19:11:26 GMT 25.618607 46.851349 36,000 245 421 0
2018-10-10 19:11:19 GMT 25.624878 46.865894 35,975 245 420 0
2018-10-10 19:11:15 GMT 25.627985 46.873116 35,975 245 420 0
2018-10-10 19:11:07 GMT 25.635107 46.889648 35,975 245 420 0
2018-10-10 19:11:03 GMT 25.637787 46.895855 35,975 245 420 0
2018-10-10 19:10:58 GMT 25.642456 46.906788 35,975 245 421 0
2018-10-10 19:10:47 GMT 25.651337 46.927387 35,975 245 421 0
2018-10-10 19:10:42 GMT 25.655170 46.936340 35,975 245 421 0
2018-10-10 19:10:36 GMT 25.661875 46.951939 36,000 245 421 0
2018-10-10 19:10:26 GMT 25.668903 46.968315 36,000 245 421 0
2018-10-10 19:10:19 GMT 25.674774 46.981964 36,000 245 421 0
2018-10-10 19:10:14 GMT 25.679379 46.992672 35,975 245 421 0
2018-10-10 19:10:09 GMT 25.683195 47.001637 36,000 245 421 0
2018-10-10 19:10:04 GMT 25.687408 47.011414 36,000 245 422 0
2018-10-10 19:09:59 GMT 25.691666 47.021381 35,975 245 422 0
2018-10-10 19:09:52 GMT 25.697113 47.034046 35,975 245 422 0
2018-10-10 19:09:49 GMT 25.700317 47.041473 35,975 245 422 0
2018-10-10 19:09:41 GMT 25.706909 47.056934 35,975 245 422 0
2018-10-10 19:09:36 GMT 25.710941 47.066311 35,975 245 422 0
2018-10-10 19:09:31 GMT 25.714783 47.075298 35,975 245 422 0
2018-10-10 19:09:20 GMT 25.724022 47.096783 36,000 245 422 0
2018-10-10 19:09:15 GMT 25.728306 47.106785 36,000 245 422 0
2018-10-10 19:09:09 GMT 25.733047 47.117920 36,000 245 422 0
2018-10-10 19:08:59 GMT 25.741608 47.137859 36,000 245 422 0
2018-10-10 19:08:51 GMT 25.748291 47.153522 36,000 245 422 0
2018-10-10 19:08:48 GMT 25.750717 47.159222 35,975 245 422 0
2018-10-10 19:08:41 GMT 25.757074 47.174049 35,975 245 422 0
2018-10-10 19:08:38 GMT 25.759827 47.180531 35,975 245 422 0
2018-10-10 19:08:26 GMT 25.768946 47.202034 35,975 245 421 0
2018-10-10 19:08:19 GMT 25.775116 47.216541 35,975 245 421 0
2018-10-10 19:08:15 GMT 25.778412 47.224377 35,975 245 421 0
2018-10-10 19:08:10 GMT 25.782724 47.234528 35,975 245 421 0
2018-10-10 19:08:05 GMT 25.786880 47.244312 35,975 245 421 0
2018-10-10 19:07:59 GMT 25.791550 47.255299 35,975 245 421 0
2018-10-10 19:07:54 GMT 25.795624 47.264862 35,975 245 422 0
2018-10-10 19:07:47 GMT 25.801764 47.279301 35,975 245 421 0
2018-10-10 19:07:44 GMT 25.804604 47.285934 35,975 245 421 0
2018-10-10 19:07:36 GMT 25.810822 47.300365 35,975 245 420 0
2018-10-10 19:07:33 GMT 25.813681 47.306973 36,000 245 421 0
2018-10-10 19:07:26 GMT 25.819454 47.320446 36,000 246 421 0
2018-10-10 19:07:22 GMT 25.822906 47.328644 36,000 246 421 0
2018-10-10 19:07:16 GMT 25.827850 47.340343 36,000 243 421 192
2018-10-10 19:07:11 GMT 25.831604 47.348431 36,000 241 421 192
2018-10-10 19:07:00 GMT 25.842777 47.369244 36,000 236 423 192
2018-10-10 19:06:49 GMT 25.855682 47.388905 36,000 231 425 128
2018-10-10 19:06:38 GMT 25.870285 47.407562 36,000 227 426 192
2018-10-10 19:06:28 GMT 25.884201 47.422539 35,975 221 430 320
2018-10-10 19:06:18 GMT 25.900269 47.436218 35,975 213 437 64
2018-10-10 19:06:11 GMT 25.912464 47.444668 36,000 214 436 -192
2018-10-10 19:06:07 GMT 25.919586 47.449795 35,975 216 435 -256
2018-10-10 19:05:56 GMT 25.935928 47.464668 36,000 226 428 -320
2018-10-10 19:05:48 GMT 25.946030 47.476677 36,000 232 423 -256
2018-10-10 19:05:45 GMT 25.949707 47.481770 36,000 235 422 -256
2018-10-10 19:05:35 GMT 25.960787 47.500816 35,975 244 418 -256
2018-10-10 19:05:24 GMT 25.969208 47.522449 35,975 253 417 -192
2018-10-10 19:05:13 GMT 25.975342 47.545254 36,000 254 417 0
2018-10-10 19:05:03 GMT 25.980789 47.565773 36,000 254 417 0
2018-10-10 19:04:52 GMT 25.986763 47.588444 36,000 254 417 0
2018-10-10 19:04:41 GMT 25.992535 47.610416 35,975 254 417 0
2018-10-10 19:04:31 GMT 25.998260 47.632072 35,975 254 417 0
2018-10-10 19:04:20 GMT 26.004044 47.654079 36,000 254 417 0
2018-10-10 19:04:08 GMT 26.010504 47.678551 36,000 254 417 0
2018-10-10 19:03:58 GMT 26.016083 47.699787 36,000 254 417 0
2018-10-10 19:03:48 GMT 26.021584 47.720753 36,000 254 417 0
2018-10-10 19:03:37 GMT 26.027252 47.742332 35,975 254 417 0
2018-10-10 19:03:26 GMT 26.033386 47.765602 35,975 254 417 0
2018-10-10 19:03:15 GMT 26.039246 47.788040 35,975 254 417 0
2018-10-10 19:03:04 GMT 26.044998 47.809860 35,975 254 417 0
2018-10-10 19:02:53 GMT 26.050865 47.832306 35,975 254 417 0
2018-10-10 19:02:42 GMT 26.056963 47.855549 35,975 254 417 0
2018-10-10 19:02:32 GMT 26.062317 47.875980 36,000 254 418 0
2018-10-10 19:02:21 GMT 26.068089 47.898224 36,000 254 418 0
2018-10-10 19:02:10 GMT 26.074219 47.921692 35,975 254 417 0
2018-10-10 19:01:59 GMT 26.079987 47.943768 35,975 254 417 0
2018-10-10 19:01:49 GMT 26.085571 47.965168 35,975 254 417 0
2018-10-10 19:01:38 GMT 26.091248 47.986832 35,975 254 418 0
2018-10-10 19:01:27 GMT 26.097464 48.010731 36,000 254 418 0
2018-10-10 19:01:17 GMT 26.102724 48.030960 35,975 254 418 0
2018-10-10 19:01:07 GMT 26.108276 48.052177 36,000 254 418 0
2018-10-10 19:00:24 GMT 26.131073 48.139912 35,975 255 418 0
2018-10-10 19:00:14 GMT 26.136568 48.161156 36,000 255 418 0
2018-10-10 19:00:02 GMT 26.142805 48.185085 36,000 254 417 0
2018-10-10 18:59:52 GMT 26.148193 48.205883 36,000 254 417 0
2018-10-10 18:59:41 GMT 26.154236 48.229153 36,000 254 417 0
2018-10-10 18:59:30 GMT 26.165663 48.273449 35,975 255 416 0
2018-10-10 18:59:19 GMT 26.165663 48.273449 35,975 255 416 0
2018-10-10 18:59:09 GMT 26.171219 48.295071 35,975 255 416 0
2018-10-10 18:58:58 GMT 26.177395 48.319191 35,975 254 417 0
2018-10-10 18:58:47 GMT 26.189032 48.364086 36,000 254 417 0
2018-10-10 18:58:35 GMT 26.189032 48.364086 36,000 254 417 0
2018-10-10 18:58:25 GMT 26.194525 48.385532 36,000 254 417 0
2018-10-10 18:58:14 GMT 26.200287 48.407784 36,000 254 417 0
2018-10-10 18:58:06 GMT 26.206055 48.430275 36,000 254 417 0
2018-10-10 18:57:55 GMT 26.212143 48.454006 36,000 255 417 0
2018-10-10 18:57:42 GMT 26.217569 48.475060 36,000 255 417 0
2018-10-10 18:57:34 GMT 26.221481 48.490337 35,975 255 417 0
2018-10-10 18:57:31 GMT 26.223404 48.497746 35,975 255 417 0
2018-10-10 18:57:20 GMT 26.228897 48.519199 36,000 255 417 0
2018-10-10 18:57:12 GMT 26.233303 48.536331 35,975 255 417 0
2018-10-10 18:57:08 GMT 26.235306 48.544201 35,975 255 417 0
2018-10-10 18:57:01 GMT 26.238935 48.558460 35,975 255 417 0
2018-10-10 18:56:58 GMT 26.240564 48.564854 35,975 255 417 0
2018-10-10 18:56:47 GMT 26.246199 48.586929 36,000 255 417 0
2018-10-10 18:56:36 GMT 26.252380 48.611080 35,975 255 418 0
2018-10-10 18:56:25 GMT 26.257977 48.632988 35,975 255 417 0
2018-10-10 18:56:18 GMT 26.262026 48.648727 35,975 255 418 0
2018-10-10 18:56:14 GMT 26.263887 48.655964 35,975 255 418 0
2018-10-10 18:56:08 GMT 26.267380 48.669594 35,975 255 418 0
2018-10-10 18:56:02 GMT 26.270142 48.680576 36,000 255 418 0
2018-10-10 18:55:58 GMT 26.272888 48.691353 35,975 255 418 0
2018-10-10 18:55:52 GMT 26.275452 48.701305 35,975 255 418 0
2018-10-10 18:55:47 GMT 26.278336 48.712704 35,975 255 418 0
2018-10-10 18:55:44 GMT 26.279530 48.717499 35,975 255 418 0
2018-10-10 18:55:41 GMT 26.281113 48.723679 36,000 255 418 0
2018-10-10 18:55:35 GMT 26.284515 48.736958 36,000 255 418 0
2018-10-10 18:55:29 GMT 26.287399 48.748360 35,975 255 418 0
2018-10-10 18:55:25 GMT 26.289825 48.757893 35,975 255 418 0
2018-10-10 18:55:19 GMT 26.293076 48.770580 35,975 255 419 0
2018-10-10 18:55:13 GMT 26.296143 48.782616 35,975 255 419 0
2018-10-10 18:55:07 GMT 26.299164 48.794430 36,000 255 419 0
2018-10-10 18:55:03 GMT 26.301922 48.805229 36,000 255 419 0
2018-10-10 18:54:56 GMT 26.305321 48.818699 36,000 255 419 0
2018-10-10 18:54:49 GMT 26.308859 48.832645 36,000 255 419 0
2018-10-10 18:54:42 GMT 26.312349 48.846588 35,975 255 419 0
2018-10-10 18:54:33 GMT 26.317610 48.867348 35,975 255 419 0
2018-10-10 18:54:21 GMT 26.323242 48.889626 35,975 255 420 0
2018-10-10 18:54:09 GMT 26.329666 48.914776 36,000 255 420 0
2018-10-10 18:53:57 GMT 26.336334 48.941032 36,000 255 420 0
2018-10-10 18:53:49 GMT 26.340187 48.956242 35,975 255 420 0
2018-10-10 18:53:46 GMT 26.342194 48.964146 35,975 255 420 0
2018-10-10 18:53:37 GMT 26.352448 49.004776 35,975 255 420 0
2018-10-10 18:53:27 GMT 26.352448 49.004776 35,975 255 421 0
2018-10-10 18:53:24 GMT 26.353546 49.009182 35,975 255 421 0
2018-10-10 18:53:16 GMT 26.363836 49.049889 35,975 255 421 0
2018-10-10 18:53:05 GMT 26.369423 49.072018 35,975 255 421 0
2018-10-10 18:52:54 GMT 26.369423 49.072018 36,000 255 421 0
2018-10-10 18:52:43 GMT 26.374924 49.094013 35,975 255 421 0
2018-10-10 18:52:34 GMT 26.380362 49.115543 35,975 255 421 0
2018-10-10 18:52:29 GMT 26.382458 49.123886 35,975 255 422 0
2018-10-10 18:52:23 GMT 26.385544 49.136250 35,975 255 422 0
2018-10-10 18:52:18 GMT 26.388199 49.146717 35,975 255 422 0
2018-10-10 18:52:11 GMT 26.392090 49.162159 35,975 255 422 0
2018-10-10 18:52:03 GMT 26.396027 49.177860 35,975 255 422 0
2018-10-10 18:51:59 GMT 26.398237 49.186687 35,975 255 422 0
2018-10-10 18:51:55 GMT 26.400333 49.195087 35,975 255 422 0
2018-10-10 18:51:52 GMT 26.401794 49.200924 35,975 255 422 0
2018-10-10 18:51:48 GMT 26.404221 49.210564 35,975 255 422 0
2018-10-10 18:51:45 GMT 26.405869 49.217247 35,975 255 422 0
2018-10-10 18:51:41 GMT 26.407501 49.223766 35,975 255 422 0
2018-10-10 18:51:38 GMT 26.409178 49.230476 36,000 255 422 0
2018-10-10 18:51:27 GMT 26.414949 49.253506 35,975 255 422 0
2018-10-10 18:51:23 GMT 26.417137 49.262325 35,975 255 422 0
2018-10-10 18:51:16 GMT 26.420675 49.276375 36,000 255 422 0
2018-10-10 18:51:12 GMT 26.422865 49.285194 36,000 255 422 0
2018-10-10 18:51:06 GMT 26.426262 49.298824 36,000 255 422 0
2018-10-10 18:51:01 GMT 26.431870 49.321201 36,000 255 422 0
2018-10-10 18:50:55 GMT 26.431870 49.321201 35,975 255 422 0
2018-10-10 18:50:49 GMT 26.435713 49.336536 36,000 255 422 0
2018-10-10 18:50:44 GMT 26.437592 49.344055 36,000 255 422 0
2018-10-10 18:50:40 GMT 26.439972 49.353489 35,975 255 422 0
2018-10-10 18:50:33 GMT 26.443359 49.367065 35,975 255 422 0
2018-10-10 18:50:28 GMT 26.445768 49.376732 36,000 255 422 0
2018-10-10 18:50:22 GMT 26.448944 49.389503 36,000 255 422 0
2018-10-10 18:50:18 GMT 26.451599 49.400181 35,975 255 422 0
2018-10-10 18:50:11 GMT 26.454613 49.412331 35,975 255 422 0
2018-10-10 18:50:07 GMT 26.456707 49.420887 35,975 255 422 0
2018-10-10 18:50:01 GMT 26.460152 49.434517 35,975 255 422 0
2018-10-10 18:49:50 GMT 26.465878 49.457756 36,000 255 422 0
2018-10-10 18:49:46 GMT 26.467833 49.465466 36,000 255 421 0
2018-10-10 18:49:39 GMT 26.471420 49.480141 35,975 255 421 0
2018-10-10 18:49:31 GMT 26.475540 49.496674 35,975 255 421 0
2018-10-10 18:49:28 GMT 26.477051 49.502758 35,975 255 421 0
2018-10-10 18:49:22 GMT 26.480215 49.515488 36,000 255 421 0
2018-10-10 18:49:18 GMT 26.482496 49.524677 36,000 255 421 0
2018-10-10 18:49:06 GMT 26.488358 49.548340 36,000 255 421 0
2018-10-10 18:48:58 GMT 26.492832 49.566353 35,975 255 422 0
2018-10-10 18:48:55 GMT 26.494308 49.572178 35,975 255 421 0
2018-10-10 18:48:51 GMT 26.496414 49.580780 35,975 255 422 0
2018-10-10 18:48:44 GMT 26.500002 49.595242 35,975 255 422 0
2018-10-10 18:48:40 GMT 26.502045 49.603374 36,000 255 422 0
2018-10-10 18:48:33 GMT 26.505680 49.618061 35,975 255 422 0
2018-10-10 18:48:26 GMT 26.509172 49.632111 35,975 255 422 0
2018-10-10 18:48:22 GMT 26.511337 49.640896 35,975 255 422 0
2018-10-10 18:48:18 GMT 26.513735 49.650543 35,975 255 422 0
2018-10-10 18:48:12 GMT 26.516739 49.662712 35,975 255 422 0
2018-10-10 18:48:01 GMT 26.522532 49.685932 35,975 255 422 0
2018-10-10 18:47:54 GMT 26.526117 49.700405 35,975 255 422 0
2018-10-10 18:47:50 GMT 26.528166 49.708805 35,975 255 422 0
2018-10-10 18:47:47 GMT 26.529749 49.715302 35,975 255 422 0
2018-10-10 18:47:39 GMT 26.533611 49.730827 36,000 255 422 0
2018-10-10 18:47:28 GMT 26.539398 49.754333 36,000 255 422 0
2018-10-10 18:47:18 GMT 26.544876 49.776569 36,000 255 422 0
2018-10-10 18:47:15 GMT 26.546368 49.782642 36,000 255 422 0
2018-10-10 18:47:06 GMT 26.550888 49.800869 36,000 255 421 0
2018-10-10 18:46:55 GMT 26.556702 49.824581 36,000 255 421 0
2018-10-10 18:46:44 GMT 26.562428 49.847878 36,000 255 421 0
2018-10-10 18:46:33 GMT 26.568060 49.870747 35,975 255 421 0
2018-10-10 18:46:21 GMT 26.573879 49.894516 35,975 255 422 0
2018-10-10 18:46:10 GMT 26.579498 49.917625 35,975 255 422 0
2018-10-10 18:46:00 GMT 26.584820 49.939251 36,000 255 421 0
2018-10-10 18:44:07 GMT 26.643057 50.178204 36,000 255 421 0
2018-10-10 18:43:55 GMT 26.648666 50.201302 36,000 255 421 0
2018-10-10 18:41:28 GMT 26.693390 50.515915 35,975 286 425 64
2018-10-10 18:41:17 GMT 26.686707 50.540115 35,975 289 428 0
2018-10-10 18:41:13 GMT 26.684767 50.546616 35,975 289 428 0
2018-10-10 18:41:03 GMT 26.678741 50.567219 35,975 289 428 0
2018-10-10 18:40:52 GMT 26.671829 50.590694 35,975 289 428 0
2018-10-10 18:40:41 GMT 26.665421 50.612564 36,000 289 429 0
2018-10-10 18:40:30 GMT 26.658737 50.635468 35,975 289 429 0
2018-10-10 18:40:21 GMT 26.652695 50.656094 35,975 289 429 0
2018-10-10 18:40:08 GMT 26.645325 50.681381 35,975 289 429 0
2018-10-10 18:39:58 GMT 26.638733 50.703667 36,000 289 429 0
2018-10-10 18:39:50 GMT 26.631697 50.726784 36,000 290 429 0
2018-10-10 18:39:36 GMT 26.624249 50.750603 35,975 290 429 0
2018-10-10 18:39:25 GMT 26.617035 50.773624 35,975 290 429 0
2018-10-10 18:39:16 GMT 26.611679 50.790779 36,000 290 429 0
2018-10-10 18:39:13 GMT 26.609818 50.796661 36,000 290 429 0
2018-10-10 18:39:06 GMT 26.604721 50.812958 36,000 290 430 0
2018-10-10 18:39:03 GMT 26.602741 50.819214 35,975 290 430 0
2018-10-10 18:38:56 GMT 26.597900 50.834690 35,975 290 430 0
2018-10-10 18:38:52 GMT 26.595619 50.842033 35,975 290 430 0
2018-10-10 18:38:45 GMT 26.590988 50.856697 36,000 290 430 0
2018-10-10 18:38:41 GMT 26.588449 50.864853 35,975 290 430 0
2018-10-10 18:38:35 GMT 26.583887 50.879269 35,975 290 430 0
2018-10-10 18:38:30 GMT 26.581236 50.887669 35,975 290 430 0
2018-10-10 18:38:19 GMT 26.574018 50.910484 36,000 290 430 0
2018-10-10 18:38:12 GMT 26.569223 50.925751 36,000 290 430 0
2018-10-10 18:38:08 GMT 26.566570 50.934097 36,000 290 430 0
2018-10-10 18:38:03 GMT 26.562927 50.945625 35,975 290 430 0
2018-10-10 18:37:57 GMT 26.559496 50.956490 35,975 290 430 0
2018-10-10 18:37:52 GMT 26.555878 50.967804 36,000 290 430 0
2018-10-10 18:37:46 GMT 26.552233 50.979309 36,000 290 430 0
2018-10-10 18:37:40 GMT 26.548414 50.991459 36,000 290 430 0
2018-10-10 18:37:34 GMT 26.544132 51.004871 35,975 290 431 0
2018-10-10 18:37:30 GMT 26.541550 51.012993 35,975 290 431 0
2018-10-10 18:37:24 GMT 26.537802 51.024944 35,975 290 431 0
2018-10-10 18:37:19 GMT 26.534403 51.035667 35,975 290 431 0
2018-10-10 18:37:14 GMT 26.530725 51.047180 35,975 290 431 0
2018-10-10 18:37:08 GMT 26.526810 51.059528 35,975 290 431 0
2018-10-10 18:37:02 GMT 26.523102 51.071293 35,975 290 431 0
2018-10-10 18:36:58 GMT 26.520391 51.079876 36,000 290 431 0
2018-10-10 18:36:52 GMT 26.516249 51.092869 35,975 290 431 0
2018-10-10 18:36:46 GMT 26.512524 51.104595 36,000 290 431 0
2018-10-10 18:36:41 GMT 26.508591 51.117001 36,000 290 431 0
2018-10-10 18:36:38 GMT 26.506302 51.124310 35,975 290 431 0
2018-10-10 18:36:31 GMT 26.502003 51.137714 35,975 290 431 0
2018-10-10 18:36:27 GMT 26.499350 51.146111 36,000 290 431 0
2018-10-10 18:36:20 GMT 26.494741 51.160583 35,975 290 431 0
2018-10-10 18:36:16 GMT 26.491947 51.169350 35,975 290 431 0
2018-10-10 18:36:09 GMT 26.487339 51.183823 36,000 290 431 0
2018-10-10 18:36:06 GMT 26.484924 51.191364 36,000 290 431 0
2018-10-10 18:35:58 GMT 26.480072 51.206654 36,000 290 431 0
2018-10-10 18:35:55 GMT 26.477921 51.213390 36,000 290 431 0
2018-10-10 18:35:45 GMT 26.470533 51.236431 36,000 290 431 0
2018-10-10 18:35:34 GMT 26.463457 51.258614 36,000 290 430 0
2018-10-10 18:35:22 GMT 26.456196 51.281380 35,975 290 430 0
2018-10-10 18:35:12 GMT 26.449026 51.303776 35,975 290 430 0
2018-10-10 18:35:04 GMT 26.444185 51.319038 35,975 290 430 0
2018-10-10 18:35:00 GMT 26.440475 51.330509 35,975 290 430 0
2018-10-10 18:34:53 GMT 26.436644 51.342651 35,975 290 430 0
2018-10-10 18:34:48 GMT 26.433243 51.353310 35,975 290 431 0
2018-10-10 18:34:41 GMT 26.427887 51.370049 36,000 290 431 0
2018-10-10 18:34:30 GMT 26.420517 51.393318 35,975 290 430 0
2018-10-10 18:34:19 GMT 26.413834 51.414204 36,000 290 431 0
2018-10-10 18:34:09 GMT 26.406601 51.436794 36,000 290 431 0
2018-10-10 18:33:57 GMT 26.399309 51.459381 35,975 290 432 0
2018-10-10 18:33:46 GMT 26.391907 51.482399 35,975 291 431 0
2018-10-10 18:33:37 GMT 26.376684 51.525455 35,975 292 432 0
2018-10-10 18:33:25 GMT 26.369236 51.544472 36,000 294 433 0
2018-10-10 18:33:16 GMT 26.369236 51.544472 36,000 295 433 0
2018-10-10 18:33:02 GMT 26.357643 51.571514 35,975 297 434 0
2018-10-10 18:32:53 GMT 26.349545 51.589737 35,975 297 434 0
2018-10-10 18:32:43 GMT 26.340607 51.609810 35,975 297 435 0
2018-10-10 18:32:31 GMT 26.329527 51.634686 35,975 297 435 0
2018-10-10 18:32:21 GMT 26.320404 51.655125 35,975 297 435 0
2018-10-10 18:32:10 GMT 26.310673 51.676941 36,000 297 434 0
2018-10-10 18:32:00 GMT 26.301544 51.697357 36,000 297 434 0
2018-10-10 18:31:49 GMT 26.291679 51.719353 36,000 297 434 0
2018-10-10 18:31:37 GMT 26.281448 51.742134 35,975 297 434 0
2018-10-10 18:31:27 GMT 26.272081 51.763142 36,000 297 433 0
2018-10-10 18:31:14 GMT 26.260956 51.788124 36,000 296 433 0
2018-10-10 18:31:04 GMT 26.251648 51.809345 36,000 296 433 0
2018-10-10 18:30:55 GMT 26.243134 51.828781 36,000 296 433 0
2018-10-10 18:30:43 GMT 26.233566 51.850597 36,000 296 433 0
2018-10-10 18:30:32 GMT 26.223999 51.872414 35,975 296 433 0
2018-10-10 18:30:21 GMT 26.214170 51.894817 35,975 297 432 0
2018-10-10 18:30:09 GMT 26.203995 51.917812 36,000 297 433 0
2018-10-10 18:30:00 GMT 26.195160 51.937298 35,975 297 433 0
2018-10-10 18:29:56 GMT 26.192368 51.943462 35,975 297 433 0
2018-10-10 18:29:49 GMT 26.185593 51.958389 35,975 297 433 0
2018-10-10 18:29:39 GMT 26.165771 52.002644 35,975 297 433 0
2018-10-10 18:29:27 GMT 26.165771 52.002644 35,975 297 433 0
2018-10-10 18:29:17 GMT 26.157028 52.022232 35,975 297 433 0
2018-10-10 18:29:12 GMT 26.152954 52.031406 35,975 297 433 0
2018-10-10 18:29:08 GMT 26.148857 52.040600 35,975 297 433 0
2018-10-10 18:29:01 GMT 26.142714 52.054386 35,975 297 433 0
2018-10-10 18:28:58 GMT 26.139038 52.062603 35,975 297 434 0
2018-10-10 18:28:53 GMT 26.135468 52.070583 36,000 297 434 0
2018-10-10 18:28:43 GMT 26.126373 52.090988 36,000 297 434 0
2018-10-10 18:28:29 GMT 26.114082 52.118347 35,975 297 434 0
2018-10-10 18:28:18 GMT 26.104568 52.139507 36,000 297 434 0
2018-10-10 18:28:04 GMT 26.091843 52.167854 36,000 297 434 0
2018-10-10 18:27:51 GMT 26.079391 52.195423 35,975 297 435 0
2018-10-10 18:27:47 GMT 26.076599 52.201591 36,000 297 435 0
2018-10-10 18:27:40 GMT 26.069183 52.217964 35,975 297 435 0
2018-10-10 18:27:37 GMT 26.067810 52.220924 35,975 297 435 0
2018-10-10 18:27:28 GMT 26.058453 52.241680 35,975 297 435 0
2018-10-10 18:27:05 GMT 26.038296 52.286575 36,000 296 433 0
2018-10-10 18:26:53 GMT 26.028149 52.309605 36,000 296 433 0
2018-10-10 18:26:43 GMT 26.019024 52.330418 35,975 296 433 0
2018-10-10 18:26:30 GMT 26.007433 52.356827 36,000 296 433 0
2018-10-10 18:26:21 GMT 25.999563 52.374626 36,000 296 433 0
2018-10-10 18:26:10 GMT 25.990440 52.395435 36,000 296 433 0
2018-10-10 18:26:00 GMT 25.981384 52.416080 35,975 296 433 0
2018-10-10 18:25:48 GMT 25.970901 52.440075 35,975 296 434 0
2018-10-10 18:25:34 GMT 25.959183 52.466919 35,975 296 433 0
2018-10-10 18:25:15 GMT 25.941971 52.506668 35,975 296 434 0
2018-10-10 18:25:06 GMT 25.934097 52.524910 35,975 296 434 0
2018-10-10 18:24:51 GMT 25.921776 52.553261 35,975 296 435 0
2018-10-10 18:24:22 GMT 25.895370 52.611557 36,000 298 437 0
2018-10-10 18:24:07 GMT 25.880402 52.643322 35,975 298 437 0
2018-10-10 18:24:01 GMT 25.874014 52.656837 35,975 298 438 0
2018-10-10 18:23:31 GMT 25.846481 52.715355 35,975 298 438 0
2018-10-10 18:23:26 GMT 25.842823 52.723125 35,975 298 438 0
2018-10-10 18:23:10 GMT 25.827896 52.754772 36,000 298 438 0
2018-10-10 18:22:57 GMT 25.814659 52.782883 36,000 298 438 0
2018-10-10 18:22:54 GMT 25.812798 52.786873 36,000 298 439 0
2018-10-10 18:22:39 GMT 25.798553 52.817181 35,975 298 439 0
2018-10-10 18:22:31 GMT 25.791197 52.832993 35,975 298 439 0
2018-10-10 18:22:25 GMT 25.784725 52.846779 36,000 298 439 0
2018-10-10 18:22:17 GMT 25.778069 52.860977 36,000 298 440 0
2018-10-10 18:21:54 GMT 25.755981 52.907917 35,975 298 440 0
2018-10-10 18:21:35 GMT 25.737522 52.946587 35,975 298 440 0
2018-10-10 18:21:32 GMT 25.735241 52.951408 35,975 298 440 0
2018-10-10 18:21:16 GMT 25.719227 52.984108 35,975 301 440 0
2018-10-10 18:21:08 GMT 25.710800 52.998859 36,000 305 442 0
2018-10-10 18:20:56 GMT 25.696230 53.021160 36,000 309 444 0
2018-10-10 18:20:46 GMT 25.681778 53.040009 35,975 314 448 0
2018-10-10 18:20:34 GMT 25.666031 53.057758 35,975 316 450 0
2018-10-10 18:20:29 GMT 25.656372 53.068237 35,975 316 450 0
2018-10-10 18:20:21 GMT 25.646233 53.079250 35,975 316 450 0
2018-10-10 18:20:13 GMT 25.633478 53.093140 35,975 316 450 0
2018-10-10 18:20:00 GMT 25.613972 53.114334 35,975 316 451 0
2018-10-10 18:19:50 GMT 25.600571 53.128918 35,975 316 451 0
2018-10-10 18:19:36 GMT 25.579849 53.151440 35,975 316 451 0
2018-10-10 18:19:26 GMT 25.563400 53.169250 35,975 316 452 0
2018-10-10 18:19:16 GMT 25.548939 53.185020 35,975 316 452 -64
2018-10-10 18:19:13 GMT 25.545914 53.188286 36,000 316 452 -64
2018-10-10 18:19:03 GMT 25.530689 53.204819 36,000 316 451 -64
2018-10-10 18:18:55 GMT 25.516525 53.220215 36,000 316 451 0
2018-10-10 18:18:49 GMT 25.510441 53.226841 36,000 316 451 0
2018-10-10 18:18:42 GMT 25.497126 53.241249 36,000 316 453 320
2018-10-10 18:18:39 GMT 25.494892 53.243687 35,975 316 453 576
2018-10-10 18:18:32 GMT 25.484232 53.255241 35,850 316 452 1216
2018-10-10 18:18:28 GMT 25.476597 53.263481 35,850 316 452 1216
2018-10-10 18:18:20 GMT 25.464586 53.276436 35,675 316 453 1472
2018-10-10 18:18:12 GMT 25.453629 53.288269 35,500 316 453 1536
2018-10-10 18:18:08 GMT 25.447037 53.295391 35,375 316 453 1664
2018-10-10 18:17:57 GMT 25.430923 53.312786 35,125 316 455 1536
2018-10-10 18:17:49 GMT 25.413006 53.332146 34,825 316 455 1472
2018-10-10 18:17:35 GMT 25.398949 53.347328 34,625 316 456 1344
2018-10-10 18:17:32 GMT 25.394440 53.352203 34,550 316 456 1152
2018-10-10 18:17:24 GMT 25.381165 53.366554 34,400 316 454 1152
2018-10-10 18:17:15 GMT 25.369034 53.379719 34,250 316 453 1408
2018-10-10 18:17:11 GMT 25.361799 53.387489 34,150 316 453 1536
2018-10-10 18:17:05 GMT 25.353279 53.396767 34,000 316 453 1792
2018-10-10 18:17:02 GMT 25.337357 53.413952 33,525 316 456 2688
2018-10-10 18:16:55 GMT 25.337357 53.413952 33,700 316 455 2368
2018-10-10 18:16:49 GMT 25.329212 53.422729 33,475 316 456 2688
2018-10-10 18:16:42 GMT 25.319063 53.433666 33,200 316 458 2880
2018-10-10 18:16:39 GMT 25.312687 53.440559 33,000 316 461 2944
2018-10-10 18:16:35 GMT 25.307611 53.445999 32,625 316 466 3008
2018-10-10 18:16:32 GMT 25.303940 53.449963 32,725 316 464 3008
2018-10-10 18:16:27 GMT 25.295471 53.459064 32,475 316 467 3072
2018-10-10 18:16:22 GMT 25.288788 53.466236 32,250 316 469 3264
2018-10-10 18:16:16 GMT 25.278982 53.476780 31,925 316 473 3136
2018-10-10 18:16:11 GMT 25.271439 53.484852 31,700 316 475 3136
2018-10-10 18:16:04 GMT 25.258638 53.498596 31,275 316 479 3264
2018-10-10 18:15:58 GMT 25.251022 53.506824 31,025 316 481 3008
2018-10-10 18:15:54 GMT 25.242672 53.515751 30,800 316 484 2368
2018-10-10 18:15:44 GMT 25.226486 53.533222 30,475 316 484 1856
2018-10-10 18:15:39 GMT 25.220032 53.540142 30,350 316 484 1792
2018-10-10 18:15:32 GMT 25.206221 53.554981 29,950 316 483 1728
2018-10-10 18:15:28 GMT 25.202078 53.559437 29,950 316 483 1728
2018-10-10 18:15:21 GMT 25.189728 53.572693 29,825 316 482 1728
2018-10-10 18:15:17 GMT 25.184784 53.578033 29,525 316 480 1600
2018-10-10 18:15:09 GMT 25.170868 53.592937 29,375 316 480 1536
2018-10-10 18:15:04 GMT 25.161438 53.603020 29,375 316 480 1536
2018-10-10 18:14:56 GMT 25.151413 53.613789 29,200 316 478 1984
2018-10-10 18:14:47 GMT 25.137138 53.629086 28,800 316 478 2304
2018-10-10 18:14:44 GMT 25.132370 53.634186 28,800 316 478 2304
2018-10-10 18:14:36 GMT 25.118052 53.649452 28,475 316 478 1984
2018-10-10 18:14:24 GMT 25.100601 53.668163 28,150 316 477 1792
2018-10-10 18:14:15 GMT 25.084167 53.685810 27,850 316 475 1792
2018-10-10 18:14:03 GMT 25.067867 53.703400 27,550 316 473 1792
2018-10-10 18:13:53 GMT 25.049744 53.722942 27,275 315 470 1728
2018-10-10 18:13:41 GMT 25.031977 53.743874 26,875 311 467 1920
2018-10-10 18:13:31 GMT 25.018290 53.761959 26,575 308 465 1792
2018-10-10 18:13:21 GMT 25.005674 53.780460 26,300 305 462 1472
2018-10-10 18:13:15 GMT 24.998337 53.792316 26,175 303 460 1600
2018-10-10 18:13:10 GMT 24.986403 53.813263 25,825 302 456 2496
2018-10-10 18:12:59 GMT 24.980438 53.823956 25,625 302 457 2432
2018-10-10 18:12:50 GMT 24.970667 53.841404 25,275 302 456 2496
2018-10-10 18:12:47 GMT 24.967941 53.846333 25,175 302 456 2624
2018-10-10 18:12:39 GMT 24.958969 53.862354 24,850 302 456 2624
2018-10-10 18:12:35 GMT 24.953535 53.872082 24,650 302 456 2496
2018-10-10 18:12:29 GMT 24.943268 53.890484 24,025 302 455 2432
2018-10-10 18:12:18 GMT 24.935211 53.904877 24,000 302 455 2368
2018-10-10 18:12:14 GMT 24.932007 53.910572 23,875 302 454 2304
2018-10-10 18:12:11 GMT 24.928482 53.916882 23,775 302 452 2432
2018-10-10 18:12:07 GMT 24.923630 53.925526 23,600 302 452 2432
2018-10-10 18:12:01 GMT 24.916155 53.938881 23,350 302 452 2624
2018-10-10 18:11:56 GMT 24.911362 53.947552 23,150 302 451 2560
2018-10-10 18:11:52 GMT 24.907104 53.955181 23,000 302 451 2432
2018-10-10 18:11:48 GMT 24.901840 53.964588 22,800 302 451 2368
2018-10-10 18:11:44 GMT 24.897720 53.972015 22,675 302 449 2240
2018-10-10 18:11:38 GMT 24.890596 53.984692 22,450 302 447 2240
2018-10-10 18:11:34 GMT 24.888037 53.989357 22,350 302 447 2304
2018-10-10 18:11:28 GMT 24.880030 54.003658 22,075 302 445 2304
2018-10-10 18:11:24 GMT 24.876755 54.009449 21,975 302 444 2432
2018-10-10 18:11:20 GMT 24.871262 54.019268 21,775 302 443 2688
2018-10-10 18:11:14 GMT 24.865173 54.030254 21,550 302 442 2880
2018-10-10 18:11:09 GMT 24.859686 54.040039 21,300 302 442 2816
2018-10-10 18:11:05 GMT 24.854984 54.048431 21,100 302 441 2688
2018-10-10 18:11:02 GMT 24.853914 54.050350 21,075 302 441 2624
2018-10-10 18:10:58 GMT 24.847961 54.060871 20,850 302 440 2560
2018-10-10 18:10:52 GMT 24.842508 54.070560 20,625 302 439 2560
2018-10-10 18:10:46 GMT 24.834824 54.084015 20,350 303 437 2560
2018-10-10 18:10:42 GMT 24.830521 54.091541 20,175 303 436 2560
2018-10-10 18:10:36 GMT 24.823563 54.103779 19,925 303 435 2688
2018-10-10 18:10:30 GMT 24.818756 54.112194 19,725 303 433 2688
2018-10-10 18:10:25 GMT 24.812483 54.123215 19,450 302 432 2688
2018-10-10 18:10:19 GMT 24.807781 54.131451 19,275 303 431 2752
2018-10-10 18:10:14 GMT 24.800472 54.144253 18,975 302 430 2880
2018-10-10 18:10:10 GMT 24.797119 54.150211 18,825 302 429 2880
2018-10-10 18:10:01 GMT 24.788462 54.165398 18,450 303 428 2816
2018-10-10 18:09:58 GMT 24.783806 54.173481 18,250 303 427 2752
2018-10-10 18:09:51 GMT 24.777197 54.185089 18,000 303 425 2560
2018-10-10 18:09:47 GMT 24.773346 54.191895 17,825 303 424 2560
2018-10-10 18:09:38 GMT 24.763742 54.208668 17,450 303 421 2688
2018-10-10 18:09:34 GMT 24.758760 54.217373 17,250 302 420 2688
2018-10-10 18:09:27 GMT 24.752663 54.228050 17,000 303 418 2624
2018-10-10 18:09:24 GMT 24.748535 54.235229 16,850 302 417 2752
2018-10-10 18:09:16 GMT 24.741074 54.248505 16,525 303 415 2944
2018-10-10 18:09:13 GMT 24.736694 54.256035 16,300 303 414 2944
2018-10-10 18:09:04 GMT 24.729666 54.268314 15,975 302 411 2944
2018-10-10 18:09:00 GMT 24.723862 54.278412 15,725 303 410 2880
2018-10-10 18:08:54 GMT 24.719564 54.286037 15,525 303 408 2880
2018-10-10 18:08:51 GMT 24.714815 54.294277 15,300 303 407 2944
2018-10-10 18:08:44 GMT 24.708717 54.304955 15,025 303 406 2944
2018-10-10 18:08:39 GMT 24.703596 54.313866 14,775 303 403 2752
2018-10-10 18:08:33 GMT 24.697952 54.323780 14,525 303 401 2560
2018-10-10 18:08:27 GMT 24.692368 54.333447 14,300 303 398 2816
2018-10-10 18:08:23 GMT 24.686279 54.344227 14,025 303 396 3072
2018-10-10 18:08:16 GMT 24.681793 54.351910 13,800 303 395 3072
2018-10-10 18:08:11 GMT 24.675991 54.362061 13,500 302 392 3008
2018-10-10 18:08:05 GMT 24.670258 54.372051 13,225 302 391 3008
2018-10-10 18:08:00 GMT 24.665588 54.380341 12,975 302 389 3072
2018-10-10 18:07:50 GMT 24.655746 54.397583 12,500 303 386 2880
2018-10-10 18:07:44 GMT 24.649782 54.408028 12,200 303 384 2432
2018-10-10 18:07:38 GMT 24.644941 54.416424 12,025 303 380 1920
2018-10-10 18:07:28 GMT 24.634689 54.434460 11,725 303 369 1472
2018-10-10 18:07:22 GMT 24.629379 54.443665 11,575 303 363 1472
2018-10-10 18:07:17 GMT 24.624830 54.451611 11,475 303 359 1408
2018-10-10 18:07:10 GMT 24.619104 54.461613 11,325 303 351 1408
2018-10-10 18:07:05 GMT 24.614502 54.469604 11,200 303 346 1344
2018-10-10 18:06:59 GMT 24.609329 54.478657 11,075 303 341 1280
2018-10-10 18:06:55 GMT 24.605558 54.485397 10,975 303 336 1216
2018-10-10 18:06:46 GMT 24.598618 54.497326 10,800 303 328 1152
2018-10-10 18:06:37 GMT 24.591293 54.510040 10,650 303 318 960
2018-10-10 18:06:33 GMT 24.587820 54.516026 10,575 303 312 896
2018-10-10 18:06:22 GMT 24.576464 54.535564 10,325 303 297 2048
2018-10-10 18:06:18 GMT 24.574087 54.539658 10,225 303 296 2112
2018-10-10 18:06:13 GMT 24.573669 54.540382 10,225 303 296 2112
2018-10-10 18:06:07 GMT 24.568781 54.548725 9,975 303 294 2112
2018-10-10 18:06:03 GMT 24.565933 54.553680 9,850 303 293 2048
2018-10-10 18:05:56 GMT 24.560257 54.563293 9,625 303 290 2048
2018-10-10 18:05:52 GMT 24.558243 54.566803 9,525 303 290 2112
2018-10-10 18:05:42 GMT 24.550440 54.580132 9,150 303 287 2304
2018-10-10 18:05:34 GMT 24.544464 54.590351 8,850 303 287 2304
2018-10-10 18:05:29 GMT 24.538336 54.600704 8,525 303 285 2304
2018-10-10 18:05:23 GMT 24.536087 54.604492 8,425 303 285 2304
2018-10-10 18:05:19 GMT 24.534286 54.607544 8,325 303 285 2304
2018-10-10 18:05:12 GMT 24.528671 54.617157 8,050 303 284 2368
2018-10-10 18:05:08 GMT 24.525627 54.622417 7,975 303 284 2432
2018-10-10 18:05:01 GMT 24.520844 54.630688 7,600 303 284 2624
2018-10-10 18:04:57 GMT 24.517914 54.635822 7,575 303 284 2624
2018-10-10 18:04:49 GMT 24.512733 54.644909 7,125 302 284 2560
2018-10-10 18:04:46 GMT 24.510450 54.648949 7,000 302 285 2560
2018-10-10 18:04:38 GMT 24.505188 54.658356 6,700 302 284 2432
2018-10-10 18:04:35 GMT 24.502670 54.662884 6,550 302 284 2432
2018-10-10 18:04:27 GMT 24.498047 54.671326 6,275 301 284 2432
2018-10-10 18:04:24 GMT 24.495346 54.676411 6,050 301 283 2240
2018-10-10 18:04:16 GMT 24.490585 54.685211 5,875 300 282 2112
2018-10-10 18:04:11 GMT 24.487782 54.690563 5,750 300 282 2368
2018-10-10 18:04:05 GMT 24.483032 54.699707 5,475 300 280 2368
2018-10-10 18:04:00 GMT 24.480789 54.703930 5,350 300 279 2304
2018-10-10 18:03:55 GMT 24.472504 54.719799 4,875 300 277 2304
2018-10-10 18:03:46 GMT 24.470837 54.723003 4,800 300 277 2304
2018-10-10 18:03:43 GMT 24.468933 54.726665 4,675 301 276 2240
2018-10-10 18:03:32 GMT 24.461746 54.739685 4,350 305 272 1536
2018-10-10 18:03:26 GMT 24.457581 54.745941 4,225 310 267 1152
2018-10-10 18:03:22 GMT 24.454742 54.749756 4,150 316 263 960
2018-10-10 18:03:18 GMT 24.446915 54.756672 4,050 334 255 768
2018-10-10 18:03:10 GMT 24.441694 54.759228 4,000 340 252 768
2018-10-10 18:03:04 GMT 24.436432 54.760540 3,925 357 243 448
2018-10-10 18:02:58 GMT 24.428799 54.760677 3,850 10 236 640
2018-10-10 18:02:52 GMT 24.423248 54.759319 3,800 39 217 832
2018-10-10 18:02:48 GMT 24.418556 54.756741 3,750 35 220 704
2018-10-10 18:02:41 GMT 24.413761 54.752804 3,675 44 199 1792
2018-10-10 18:02:37 GMT 24.409790 54.749043 3,600 40 209 1024
2018-10-10 18:02:26 GMT 24.402031 54.741554 3,425 42 199 1664
2018-10-10 18:02:18 GMT 24.397430 54.736736 3,250 48 199 1728
2018-10-10 18:02:15 GMT 24.395142 54.733734 3,150 55 198 1600
2018-10-10 18:02:08 GMT 24.391891 54.727478 2,975 74 195 1664
2018-10-10 18:02:04 GMT 24.390951 54.723576 2,875 84 194 1664
2018-10-10 18:01:56 GMT 24.390701 54.717457 2,725 98 192 1728
2018-10-10 18:01:53 GMT 24.391479 54.713032 2,600 108 192 1792
2018-10-10 18:01:46 GMT 24.393652 54.707458 2,450 122 193 1792
2018-10-10 18:01:36 GMT 24.399239 54.698856 2,150 127 193 1856
2018-10-10 18:01:24 GMT 24.405029 54.690655 1,825 127 193 2048
2018-10-10 18:01:18 GMT 24.408735 54.685432 1,625 126 192 2432
2018-10-10 18:01:14 GMT 24.410843 54.682362 925 128 196 2816
2018-10-10 18:01:06 GMT 24.415558 54.675293 1,050 127 196 3008
We lost coverage of the aircraft here for a total of 173 minutes
2018-10-10 15:08:11 GMT 24.441368 54.671646 250 309 160 -832
2018-10-10 15:08:06 GMT 24.438812 54.675243 350 308 159 -832
2018-10-10 15:07:59 GMT 24.435549 54.679890 450 308 159 -832
2018-10-10 15:07:43 GMT 24.428705 54.689476 650 308 158 -832
2018-10-10 15:07:33 GMT 24.423889 54.696247 775 308 158 -832
2018-10-10 15:07:19 GMT 24.418259 54.704285 925 308 159 -832
2018-10-10 15:07:10 GMT 24.413996 54.710205 1,050 308 160 -768
2018-10-10 15:07:00 GMT 24.409607 54.716389 1,175 308 161 -832
2018-10-10 15:06:50 GMT 24.404732 54.723263 1,325 308 163 -832
2018-10-10 15:06:40 GMT 24.399673 54.730377 1,450 308 164 -832
2018-10-10 15:06:28 GMT 24.393791 54.738705 1,675 309 171 -896
2018-10-10 15:06:22 GMT 24.391558 54.741817 1,675 309 171 -896
2018-10-10 15:06:18 GMT 24.389509 54.744667 1,725 308 181 -896
2018-10-10 15:06:07 GMT 24.383469 54.753162 1,900 308 188 -1024
2018-10-10 15:05:56 GMT 24.371201 54.770405 2,750 307 211 -1600
2018-10-10 15:05:44 GMT 24.371201 54.770405 2,300 308 201 -1216
2018-10-10 15:05:36 GMT 24.366093 54.777626 2,400 308 205 -1280
2018-10-10 15:05:33 GMT 24.364883 54.779358 2,425 308 205 -1280
2018-10-10 15:05:22 GMT 24.358749 54.787952 2,625 308 211 -1408
2018-10-10 15:05:12 GMT 24.352175 54.797474 2,875 307 211 -1920
2018-10-10 15:05:04 GMT 24.347488 54.804230 3,075 310 213 -1792
2018-10-10 15:04:59 GMT 24.343826 54.808857 3,225 319 217 -1728
2018-10-10 15:04:53 GMT 24.340210 54.812519 3,350 321 219 -1536
2018-10-10 15:04:50 GMT 24.337231 54.815197 3,425 322 222 -1344
2018-10-10 15:04:43 GMT 24.331512 54.820148 3,575 322 229 -1408
2018-10-10 15:04:38 GMT 24.326843 54.824219 3,700 322 233 -1600
2018-10-10 15:04:32 GMT 24.322754 54.827736 3,825 322 236 -1472
2018-10-10 15:04:28 GMT 24.318283 54.831676 3,950 322 244 -1152
2018-10-10 15:04:22 GMT 24.313705 54.835663 4,025 322 248 -1216
2018-10-10 15:04:17 GMT 24.308786 54.840019 4,150 321 252 -1344
2018-10-10 15:04:11 GMT 24.304039 54.844215 4,250 321 257 -1280
2018-10-10 15:04:04 GMT 24.296778 54.850693 4,425 321 262 -1728
2018-10-10 15:04:00 GMT 24.293751 54.853390 4,500 321 264 -1664
2018-10-10 15:03:53 GMT 24.287699 54.858883 4,650 321 270 -1344
2018-10-10 15:03:49 GMT 24.283722 54.862415 4,750 321 272 -1344
2018-10-10 15:03:42 GMT 24.276489 54.869030 4,900 321 278 -1600
2018-10-10 15:03:39 GMT 24.273500 54.871681 4,975 322 281 -1728
2018-10-10 15:03:32 GMT 24.265137 54.878895 5,200 325 286 -1664
2018-10-10 15:03:29 GMT 24.252739 54.887642 5,775 334 292 -1664
2018-10-10 15:03:21 GMT 24.252739 54.887642 5,450 336 292 -1600
2018-10-10 15:03:17 GMT 24.249573 54.889301 5,525 337 293 -1600
2018-10-10 15:03:09 GMT 24.237534 54.893799 5,725 351 296 -1664
2018-10-10 15:03:06 GMT 24.234629 54.894329 5,750 355 298 -1600
2018-10-10 15:02:56 GMT 24.221008 54.894257 5,950 11 304 -1472
2018-10-10 15:02:44 GMT 24.205765 54.889374 6,150 26 311 -832
2018-10-10 15:02:35 GMT 24.192764 54.881695 6,250 30 316 -768
2018-10-10 15:02:23 GMT 24.178574 54.872639 6,375 30 323 -768
2018-10-10 15:02:14 GMT 24.165174 54.864063 6,500 30 329 -832
2018-10-10 15:02:02 GMT 24.150604 54.854687 6,675 30 333 -1728
2018-10-10 15:01:52 GMT 24.135361 54.844921 7,000 30 334 -1856
2018-10-10 15:01:41 GMT 24.120855 54.835716 7,300 30 335 -1728
2018-10-10 15:01:30 GMT 24.106476 54.826508 7,575 30 336 -1792
2018-10-10 15:01:20 GMT 24.093483 54.817993 7,850 31 336 -1920
2018-10-10 15:01:17 GMT 24.089218 54.815166 7,950 31 336 -1920
2018-10-10 15:01:08 GMT 24.076118 54.806126 8,250 32 338 -1728
2018-10-10 15:00:59 GMT 24.066202 54.799236 8,425 32 339 -1728
2018-10-10 15:00:55 GMT 24.059189 54.794262 8,575 32 339 -1792
2018-10-10 15:00:48 GMT 24.050190 54.787937 8,775 32 339 -1920
2018-10-10 15:00:45 GMT 24.045959 54.784954 8,875 32 339 -2112
2018-10-10 15:00:37 GMT 24.037621 54.779022 9,075 32 338 -2432
2018-10-10 15:00:32 GMT 24.029707 54.773479 9,325 32 337 -2688
2018-10-10 15:00:26 GMT 24.022522 54.768372 9,575 32 332 -3008
2018-10-10 15:00:23 GMT 24.016951 54.764462 9,775 32 329 -3136
2018-10-10 15:00:16 GMT 24.009338 54.759216 10,075 32 325 -2560
2018-10-10 15:00:10 GMT 24.002609 54.754486 10,300 32 324 -1728
2018-10-10 15:00:04 GMT 23.995117 54.749329 10,425 32 326 -768
2018-10-10 14:59:59 GMT 23.988693 54.744873 10,475 32 330 -640
2018-10-10 14:59:54 GMT 23.981827 54.740143 10,525 32 333 -640
2018-10-10 14:59:48 GMT 23.973845 54.734612 10,600 32 336 -768
2018-10-10 14:59:44 GMT 23.967773 54.730377 10,650 32 340 -896
2018-10-10 14:59:36 GMT 23.957611 54.723309 10,775 32 343 -1344
2018-10-10 14:59:32 GMT 23.953217 54.720203 10,825 32 344 -1664
2018-10-10 14:59:26 GMT 23.944885 54.714355 11,000 32 344 -2304
2018-10-10 14:59:19 GMT 23.935205 54.707561 11,275 32 343 -2624
2018-10-10 14:59:15 GMT 23.929852 54.703831 11,475 31 339 -3008
2018-10-10 14:59:11 GMT 23.923847 54.699738 11,675 31 339 -2944
2018-10-10 14:59:05 GMT 23.915375 54.694397 11,950 27 341 -2496
2018-10-10 14:59:01 GMT 23.910299 54.691601 12,075 24 341 -2304
2018-10-10 14:58:54 GMT 23.898615 54.686470 12,350 17 347 -1344
2018-10-10 14:58:50 GMT 23.894146 54.684914 12,400 15 350 -1088
2018-10-10 14:58:42 GMT 23.881119 54.681396 12,550 11 355 -1216
2018-10-10 14:58:39 GMT 23.877228 54.680531 12,600 11 357 -1408
2018-10-10 14:58:32 GMT 23.863083 54.677429 12,825 11 358 -2112
2018-10-10 14:58:29 GMT 23.860336 54.676769 12,875 11 358 -2176
2018-10-10 14:58:19 GMT 23.843079 54.672787 13,325 12 353 -3712
2018-10-10 14:58:08 GMT 23.826273 54.668903 13,950 11 354 -3712
2018-10-10 14:57:57 GMT 23.808884 54.665325 14,550 10 359 -3584
2018-10-10 14:57:47 GMT 23.791033 54.661907 15,175 9 366 -3584
2018-10-10 14:57:35 GMT 23.772970 54.658539 15,775 9 372 -3712
2018-10-10 14:57:26 GMT 23.754862 54.655064 16,400 10 378 -3648
2018-10-10 14:57:15 GMT 23.736099 54.651337 17,025 10 384 -3776
2018-10-10 14:57:04 GMT 23.717434 54.647552 17,675 10 389 -4160
2018-10-10 14:56:52 GMT 23.693739 54.642677 18,350 10 393 -4096
2018-10-10 14:56:42 GMT 23.660595 54.635529 21,075 10 393 -5760
2018-10-10 14:56:32 GMT 23.660595 54.635529 19,925 10 394 -5632
2018-10-10 14:56:22 GMT 23.641205 54.631756 20,950 7 387 -5824
2018-10-10 14:56:11 GMT 23.619953 54.629620 21,975 1 386 -4224
2018-10-10 14:55:59 GMT 23.601101 54.629051 22,625 1 389 -3584
2018-10-10 14:55:49 GMT 23.581827 54.628586 23,225 1 395 -3584
2018-10-10 14:55:37 GMT 23.562136 54.628220 23,800 1 401 -3392
2018-10-10 14:55:27 GMT 23.542465 54.627769 24,375 1 409 -3264
2018-10-10 14:55:16 GMT 23.521133 54.627220 24,925 1 418 -3136
2018-10-10 14:55:05 GMT 23.499895 54.626667 25,475 1 425 -3712
2018-10-10 14:54:55 GMT 23.479088 54.626209 26,125 1 430 -4288
2018-10-10 14:54:44 GMT 23.456881 54.625652 26,850 1 434 -4416
2018-10-10 14:54:33 GMT 23.435944 54.624771 27,575 2 436 -4352
2018-10-10 14:54:22 GMT 23.413216 54.623615 28,300 2 442 -3648
2018-10-10 14:54:12 GMT 23.391998 54.622524 28,875 2 450 -3584
2018-10-10 14:54:00 GMT 23.369364 54.621380 29,450 2 458 -3392
2018-10-10 14:53:49 GMT 23.344736 54.620007 30,075 2 467 -3968
2018-10-10 14:53:39 GMT 23.322578 54.618786 30,750 3 473 -4544
2018-10-10 14:53:29 GMT 23.298798 54.617382 31,525 3 477 -4928
2018-10-10 14:53:18 GMT 23.274216 54.615833 32,350 3 482 -4096
2018-10-10 14:53:06 GMT 23.250889 54.614361 32,975 3 487 -3264
2018-10-10 14:52:57 GMT 23.227570 54.612938 33,450 3 492 -2560
2018-10-10 14:52:46 GMT 23.201569 54.611389 33,925 3 492 -2624
2018-10-10 14:52:35 GMT 23.178726 54.610092 34,350 2 493 -2304
2018-10-10 14:52:24 GMT 23.152662 54.608814 34,725 2 494 -1984
2018-10-10 14:52:14 GMT 23.128128 54.607800 35,050 2 495 -1792
2018-10-10 14:52:03 GMT 23.105227 54.607189 35,350 357 488 -1600
2018-10-10 14:51:51 GMT 23.079758 54.610291 35,675 348 480 -1344
2018-10-10 14:51:42 GMT 23.058426 54.616734 35,875 339 474 -640
2018-10-10 14:51:30 GMT 23.036270 54.627518 35,975 330 469 256
2018-10-10 14:51:21 GMT 23.018005 54.640152 35,975 322 465 256
2018-10-10 14:51:08 GMT 22.990381 54.668781 35,975 309 459 256
2018-10-10 14:50:59 GMT 22.985916 54.674911 35,975 306 458 256
2018-10-10 14:50:49 GMT 22.973249 54.695484 35,975 300 456 192
2018-10-10 14:50:34 GMT 22.957096 54.733685 36,000 288 452 192
2018-10-10 14:50:27 GMT 22.955374 54.739735 36,000 287 452 192
2018-10-10 14:50:23 GMT 22.952534 54.750622 36,000 281 451 256
2018-10-10 14:50:15 GMT 22.949741 54.765217 36,000 279 451 192
2018-10-10 14:50:03 GMT 22.947144 54.791466 36,000 272 451 192
2018-10-10 14:49:59 GMT 22.946995 54.802704 35,975 267 450 192
2018-10-10 14:49:52 GMT 22.947647 54.817333 35,975 265 451 192
2018-10-10 14:49:43 GMT 22.950207 54.838562 36,000 263 450 192
2018-10-10 14:49:40 GMT 22.950943 54.842751 35,975 259 450 64
2018-10-10 14:49:37 GMT 22.952866 54.852940 35,975 258 451 0
2018-10-10 14:49:29 GMT 22.955746 54.867504 36,000 258 451 0
2018-10-10 14:49:26 GMT 22.957190 54.874775 35,975 258 450 0
2018-10-10 14:49:14 GMT 22.965088 54.914711 35,975 258 450 0
2018-10-10 14:49:05 GMT 22.967056 54.924648 36,000 258 450 0
2018-10-10 14:48:56 GMT 22.970261 54.940781 35,975 258 450 0
2018-10-10 14:48:52 GMT 22.972687 54.953114 35,975 258 450 0
2018-10-10 14:48:41 GMT 22.977068 54.975433 36,000 258 450 0
2018-10-10 14:48:33 GMT 22.980232 54.991558 36,000 258 449 0
2018-10-10 14:48:28 GMT 22.982933 55.005238 36,000 258 450 0
2018-10-10 14:48:21 GMT 22.986238 55.021973 36,000 258 449 0
2018-10-10 14:48:12 GMT 22.989357 55.037640 36,000 258 449 0
2018-10-10 14:48:09 GMT 22.991266 55.047302 35,975 258 449 0
2018-10-10 14:47:58 GMT 22.995735 55.069988 35,975 258 448 0
2018-10-10 14:47:46 GMT 23.000793 55.095535 36,000 258 448 0
2018-10-10 14:47:35 GMT 23.005417 55.119057 35,975 258 448 0
2018-10-10 14:47:24 GMT 23.010445 55.144348 36,000 258 448 0
2018-10-10 14:47:13 GMT 23.015194 55.168560 35,975 259 448 0
2018-10-10 14:47:03 GMT 23.019974 55.192966 35,975 259 449 0
2018-10-10 14:46:52 GMT 23.024643 55.216988 36,000 259 448 0
2018-10-10 14:46:40 GMT 23.029531 55.242054 36,000 259 448 0
2018-10-10 14:46:33 GMT 23.032698 55.258789 35,975 262 448 -64
2018-10-10 14:46:29 GMT 23.033981 55.266724 36,000 262 448 -64
2018-10-10 14:46:19 GMT 23.037140 55.290096 36,000 264 447 0
2018-10-10 14:46:06 GMT 23.039337 55.315365 35,975 267 447 -64
2018-10-10 14:45:56 GMT 23.040207 55.339382 35,975 271 449 -64
2018-10-10 14:45:45 GMT 23.040007 55.364124 35,975 271 449 0
2018-10-10 14:45:34 GMT 23.039658 55.389320 36,000 271 449 0
2018-10-10 14:45:22 GMT 23.039246 55.417236 36,000 271 449 0
2018-10-10 14:45:12 GMT 23.038925 55.440857 35,975 271 449 0
2018-10-10 14:45:00 GMT 23.038559 55.467823 35,975 271 449 0
2018-10-10 14:44:46 GMT 23.038097 55.498859 35,975 271 449 0
2018-10-10 14:44:38 GMT 23.037827 55.516861 36,000 271 449 0
2018-10-10 14:44:27 GMT 23.037460 55.542282 36,000 271 449 0
2018-10-10 14:44:12 GMT 23.037003 55.572193 35,975 271 449 0
2018-10-10 14:43:59 GMT 23.036560 55.601452 36,000 272 450 0
2018-10-10 14:43:51 GMT 23.036270 55.618835 35,975 272 450 0
2018-10-10 14:43:41 GMT 23.035910 55.644073 35,975 272 450 0
2018-10-10 14:42:33 GMT 23.033478 55.796413 36,000 272 452 0
2018-10-10 14:39:44 GMT 23.026646 56.189373 36,000 272 454 0
2018-10-10 14:39:28 GMT 23.025925 56.228077 36,000 272 455 0
2018-10-10 14:39:09 GMT 23.025063 56.271870 35,975 272 455 0
2018-10-10 14:38:50 GMT 23.024323 56.312222 35,975 272 455 0
2018-10-10 14:38:39 GMT 23.023806 56.337738 35,975 272 455 0
2018-10-10 14:38:21 GMT 23.022968 56.380360 36,000 272 455 0
2018-10-10 14:37:56 GMT 23.021805 56.438766 35,975 272 455 0
2018-10-10 14:37:46 GMT 23.021530 56.450401 35,975 272 456 0
2018-10-10 14:37:36 GMT 23.021059 56.472523 36,000 272 456 0
2018-10-10 14:37:26 GMT 23.020594 56.493328 36,000 272 456 0
2018-10-10 14:37:15 GMT 23.020065 56.518864 35,975 272 456 0
2018-10-10 14:37:05 GMT 23.019562 56.541737 35,975 272 457 0
2018-10-10 14:36:54 GMT 23.019056 56.566669 36,000 272 457 0
2018-10-10 14:36:43 GMT 23.018499 56.590679 36,000 272 456 0
2018-10-10 14:36:33 GMT 23.017941 56.615143 35,975 272 457 0
2018-10-10 14:36:23 GMT 23.017427 56.638287 36,000 272 457 0
2018-10-10 14:36:11 GMT 23.016869 56.664124 36,000 272 457 64
2018-10-10 14:36:02 GMT 23.016403 56.686554 35,975 272 457 0
2018-10-10 14:35:59 GMT 23.016174 56.695496 35,975 272 457 0
2018-10-10 14:35:52 GMT 23.015854 56.709229 36,000 272 457 0
2018-10-10 14:35:49 GMT 23.015659 56.717731 36,000 272 457 0
2018-10-10 14:35:42 GMT 23.015333 56.733551 36,000 272 457 0
2018-10-10 14:35:37 GMT 23.015121 56.744736 36,000 272 457 0
2018-10-10 14:35:30 GMT 23.014820 56.759388 35,975 272 457 0
2018-10-10 14:35:27 GMT 23.014572 56.768803 36,000 272 457 0
2018-10-10 14:35:21 GMT 23.014309 56.781872 36,000 272 457 0
2018-10-10 14:35:07 GMT 23.013611 56.812099 36,000 272 457 0
2018-10-10 14:35:00 GMT 23.013239 56.829731 35,975 272 457 0
2018-10-10 14:34:48 GMT 23.012695 56.854946 36,000 272 457 0
2018-10-10 14:34:38 GMT 23.012169 56.878967 35,975 272 457 0
2018-10-10 14:34:31 GMT 23.011749 56.897533 36,000 272 457 0
2018-10-10 14:34:25 GMT 23.011517 56.906891 35,975 272 457 0
2018-10-10 14:34:19 GMT 23.011093 56.924961 35,975 272 457 0
2018-10-10 14:34:10 GMT 23.010632 56.943970 36,000 272 457 0
2018-10-10 14:34:06 GMT 23.010498 56.949928 36,000 272 457 0
2018-10-10 14:33:56 GMT 23.009903 56.975548 35,975 272 457 0
2018-10-10 14:33:45 GMT 23.009281 56.999561 35,975 272 457 0
2018-10-10 14:33:36 GMT 23.008713 57.022438 35,975 272 457 0
2018-10-10 14:33:24 GMT 23.008072 57.046909 35,975 272 457 0
2018-10-10 14:33:12 GMT 23.007374 57.073872 35,975 272 457 0
2018-10-10 14:33:02 GMT 23.006699 57.097645 36,000 272 456 0
2018-10-10 14:32:54 GMT 23.006149 57.117321 35,975 272 456 0
2018-10-10 14:32:42 GMT 23.005417 57.143139 36,000 272 456 0
2018-10-10 14:32:32 GMT 23.004719 57.167866 36,000 272 456 0
2018-10-10 14:32:21 GMT 23.004181 57.190231 35,975 272 457 0
2018-10-10 14:32:12 GMT 23.003632 57.214951 35,975 272 457 0
2018-10-10 14:32:00 GMT 23.003082 57.239868 35,975 272 456 0
2018-10-10 14:31:53 GMT 23.002716 57.254501 36,000 266 455 0
2018-10-10 14:31:50 GMT 23.002670 57.264099 35,975 269 456 64
2018-10-10 14:31:43 GMT 23.003090 57.277069 36,000 266 455 0
2018-10-10 14:31:40 GMT 23.003742 57.286121 36,000 265 454 0
2018-10-10 14:31:34 GMT 23.005005 57.297596 36,000 261 452 64
2018-10-10 14:31:30 GMT 23.006790 57.309483 36,000 259 451 64
2018-10-10 14:31:25 GMT 23.008631 57.319439 36,000 257 451 64
2018-10-10 14:31:20 GMT 23.011049 57.330170 36,000 254 450 64
2018-10-10 14:31:14 GMT 23.014572 57.342690 35,975 251 450 0
2018-10-10 14:31:10 GMT 23.017868 57.352676 35,975 249 450 0
2018-10-10 14:31:03 GMT 23.022217 57.364662 36,000 249 450 0
2018-10-10 14:30:59 GMT 23.025808 57.374523 36,000 249 449 0
2018-10-10 14:30:52 GMT 23.030777 57.388134 36,000 249 449 0
2018-10-10 14:30:48 GMT 23.034714 57.399021 35,975 249 449 0
2018-10-10 14:30:42 GMT 23.038656 57.409924 36,000 249 449 0
2018-10-10 14:30:37 GMT 23.042194 57.419586 36,000 249 449 0
2018-10-10 14:30:31 GMT 23.046803 57.432354 35,975 249 449 0
2018-10-10 14:30:27 GMT 23.050461 57.442417 35,975 249 449 0
2018-10-10 14:30:16 GMT 23.058517 57.464638 35,975 249 449 0
2018-10-10 14:30:05 GMT 23.067518 57.489574 35,975 249 449 0
2018-10-10 14:29:54 GMT 23.074966 57.510071 35,975 249 449 0
2018-10-10 14:29:45 GMT 23.082693 57.531433 36,000 249 449 0
2018-10-10 14:29:32 GMT 23.092098 57.557373 36,000 249 448 0
2018-10-10 14:29:22 GMT 23.098942 57.576191 35,975 249 448 0
2018-10-10 14:29:12 GMT 23.107040 57.598572 36,000 249 447 0
2018-10-10 14:29:01 GMT 23.115561 57.622173 36,000 249 447 0
2018-10-10 14:28:50 GMT 23.123978 57.645363 36,000 249 447 0
2018-10-10 14:28:39 GMT 23.132355 57.668587 35,975 249 447 0
2018-10-10 14:28:29 GMT 23.140457 57.691158 36,000 249 447 0
2018-10-10 14:28:16 GMT 23.149590 57.716419 36,000 249 446 0
2018-10-10 14:28:09 GMT 23.154804 57.730816 36,000 249 447 0
2018-10-10 14:28:05 GMT 23.156944 57.736664 36,000 249 447 0
2018-10-10 14:28:00 GMT 23.161972 57.750683 35,975 249 447 0
2018-10-10 14:27:55 GMT 23.165131 57.759422 35,975 249 447 0
2018-10-10 14:27:48 GMT 23.170259 57.773640 36,000 249 447 0
2018-10-10 14:27:45 GMT 23.172958 57.781170 36,000 249 447 0
2018-10-10 14:27:39 GMT 23.178173 57.795361 35,975 249 446 0
2018-10-10 14:27:32 GMT 23.183247 57.809803 35,975 249 446 0
2018-10-10 14:27:27 GMT 23.186188 57.817947 35,975 249 446 0
2018-10-10 14:27:23 GMT 23.189850 57.828136 35,975 249 446 0
2018-10-10 14:27:18 GMT 23.193420 57.837975 36,000 249 446 0
2018-10-10 14:27:11 GMT 23.197586 57.849659 36,000 249 446 0
2018-10-10 14:27:05 GMT 23.202805 57.864040 35,975 249 446 0
2018-10-10 14:27:02 GMT 23.205643 57.871933 36,000 249 445 0
2018-10-10 14:26:57 GMT 23.209351 57.882370 36,000 249 445 0
2018-10-10 14:26:51 GMT 23.213785 57.894642 35,975 249 445 0
2018-10-10 14:26:45 GMT 23.217369 57.904663 35,975 249 445 0
2018-10-10 14:26:40 GMT 23.221756 57.916927 35,975 249 445 0
2018-10-10 14:26:36 GMT 23.224911 57.925671 36,000 249 445 0
2018-10-10 14:26:28 GMT 23.229950 57.939846 35,975 249 445 0
2018-10-10 14:26:24 GMT 23.233105 57.948559 35,975 249 445 0
2018-10-10 14:26:19 GMT 23.237619 57.961273 35,975 249 445 0
2018-10-10 14:26:15 GMT 23.240387 57.968960 35,975 249 445 0
2018-10-10 14:26:08 GMT 23.246063 57.984741 36,000 249 445 0
2018-10-10 14:26:04 GMT 23.248375 57.991230 36,000 249 444 0
2018-10-10 14:25:57 GMT 23.253662 58.005966 36,000 249 444 0
2018-10-10 14:25:54 GMT 23.256592 58.014107 36,000 249 444 0
2018-10-10 14:25:46 GMT 23.262222 58.029884 35,975 249 444 0
2018-10-10 14:25:42 GMT 23.264420 58.035927 35,975 249 444 0
2018-10-10 14:25:33 GMT 23.271927 58.056900 36,000 249 444 0
2018-10-10 14:25:25 GMT 23.277832 58.073330 35,975 249 444 0
2018-10-10 14:25:21 GMT 23.279892 58.079174 35,975 249 445 0
2018-10-10 14:25:12 GMT 23.287477 58.100384 35,975 249 444 0
2018-10-10 14:25:04 GMT 23.293350 58.116825 36,000 249 444 0
2018-10-10 14:24:51 GMT 23.302933 58.143665 35,975 249 443 0
2018-10-10 14:24:40 GMT 23.310801 58.165691 35,975 249 443 0
2018-10-10 14:24:30 GMT 23.318619 58.187489 35,975 249 443 0
2018-10-10 14:24:18 GMT 23.326767 58.210361 35,975 249 443 0
2018-10-10 14:24:09 GMT 23.334045 58.230736 35,975 249 443 0
2018-10-10 14:23:57 GMT 23.342194 58.253555 35,975 249 443 0
2018-10-10 14:23:48 GMT 23.349718 58.274792 35,975 249 443 0
2018-10-10 14:23:36 GMT 23.357725 58.297222 36,000 249 443 0
2018-10-10 14:23:26 GMT 23.366226 58.321121 36,000 249 443 0
2018-10-10 14:23:16 GMT 23.373322 58.341099 36,000 249 443 0
2018-10-10 14:23:05 GMT 23.381792 58.364971 35,975 249 443 0
2018-10-10 14:22:53 GMT 23.389566 58.386791 35,975 249 443 0
2018-10-10 14:22:42 GMT 23.398270 58.411308 35,975 249 443 0
2018-10-10 14:22:32 GMT 23.409988 58.444370 36,000 249 443 0
2018-10-10 14:22:15 GMT 23.421873 58.477985 35,975 249 442 0
2018-10-10 14:21:59 GMT 23.429834 58.500416 35,975 249 442 0
2018-10-10 14:21:47 GMT 23.438074 58.523663 35,975 249 442 0
2018-10-10 14:21:37 GMT 23.446289 58.546890 36,000 250 442 0
2018-10-10 14:21:25 GMT 23.457962 58.579849 35,975 250 442 0
2018-10-10 14:21:10 GMT 23.465744 58.601822 35,975 250 442 0
2018-10-10 14:20:59 GMT 23.473846 58.624844 36,000 250 442 0
2018-10-10 14:20:49 GMT 23.481400 58.646217 36,000 250 441 0
2018-10-10 14:20:38 GMT 23.489227 58.668343 36,000 250 441 0
2018-10-10 14:20:26 GMT 23.497650 58.692162 35,975 250 440 0
2018-10-10 14:20:16 GMT 23.505066 58.713284 35,975 250 440 0
2018-10-10 14:20:06 GMT 23.512745 58.735046 35,975 250 440 0
2018-10-10 14:19:55 GMT 23.520538 58.757229 35,975 250 441 0
2018-10-10 14:19:45 GMT 23.528061 58.778584 35,975 250 441 0
2018-10-10 14:19:33 GMT 23.536194 58.801624 36,000 250 441 0
2018-10-10 14:19:24 GMT 23.543562 58.822529 36,000 250 441 0
2018-10-10 14:19:13 GMT 23.551569 58.845364 36,000 250 441 0
2018-10-10 14:19:02 GMT 23.559250 58.867184 35,975 250 441 0
2018-10-10 14:18:51 GMT 23.567350 58.890244 35,975 250 441 0
2018-10-10 14:18:41 GMT 23.574753 58.911438 36,000 250 441 0
2018-10-10 14:18:30 GMT 23.582434 58.933308 35,975 250 441 0
2018-10-10 14:18:20 GMT 23.589981 58.954926 36,000 250 441 0
2018-10-10 14:18:08 GMT 23.598083 58.977966 36,000 250 441 0
2018-10-10 14:17:59 GMT 23.605865 59.000244 35,975 250 441 0
2018-10-10 14:17:47 GMT 23.613203 59.021198 36,000 250 441 0
2018-10-10 14:17:36 GMT 23.621397 59.044674 35,975 250 440 0
2018-10-10 14:17:27 GMT 23.629030 59.066437 36,000 250 440 0
2018-10-10 14:17:16 GMT 23.636353 59.087421 35,975 250 440 0
2018-10-10 14:17:04 GMT 23.644766 59.111473 35,975 250 440 0
2018-10-10 14:16:55 GMT 23.652121 59.132614 36,000 250 440 0
2018-10-10 14:16:44 GMT 23.660221 59.155830 35,975 250 439 0
2018-10-10 14:16:32 GMT 23.668076 59.178364 35,975 250 439 0
2018-10-10 14:16:22 GMT 23.675629 59.200134 36,000 250 439 0
2018-10-10 14:16:12 GMT 23.683311 59.222061 35,975 250 439 0
2018-10-10 14:16:00 GMT 23.691086 59.244396 35,975 250 439 0
2018-10-10 14:15:50 GMT 23.698812 59.266525 35,975 250 439 0
2018-10-10 14:15:38 GMT 23.707077 59.290314 35,975 250 439 0
2018-10-10 14:15:29 GMT 23.713394 59.308575 35,975 250 440 0
2018-10-10 14:15:19 GMT 23.721346 59.331352 35,975 250 440 0
2018-10-10 14:15:07 GMT 23.729095 59.353741 35,975 250 440 0
2018-10-10 14:14:56 GMT 23.736753 59.375767 36,000 250 440 0
2018-10-10 14:14:47 GMT 23.744156 59.397125 35,975 250 440 0
2018-10-10 14:14:35 GMT 23.751928 59.419502 36,000 250 440 0
2018-10-10 14:14:25 GMT 23.760086 59.443157 35,975 250 439 0
2018-10-10 14:14:15 GMT 23.767059 59.463242 35,975 250 439 0
2018-10-10 14:14:03 GMT 23.774879 59.485786 36,000 250 438 0
2018-10-10 14:13:53 GMT 23.782608 59.508106 36,000 250 437 0
2018-10-10 14:13:43 GMT 23.789520 59.528149 35,975 250 437 64
2018-10-10 14:13:33 GMT 23.797302 59.550579 36,000 250 437 0
2018-10-10 14:13:22 GMT 23.808517 59.583130 35,975 250 435 0
2018-10-10 14:13:05 GMT 23.816032 59.604874 35,975 250 434 0
2018-10-10 14:12:55 GMT 23.824318 59.628864 35,975 250 434 0
2018-10-10 14:12:44 GMT 23.830929 59.648090 35,975 250 433 0
2018-10-10 14:12:35 GMT 23.838377 59.669807 35,975 250 433 0

Making use of Plane Finder data

You are free to use the raw flight data, aircraft information and images provided in this report for your own purposes provided the data is correctly attributed to Plane Finder. We ask that you please credit Plane Finder and link to planefinder.net in close proximity to the content.

Optionally one of the following logos (no smaller then 150x24px) can be used and must link to planefinder.net

Embedding the Plane Finder map

You are welcome to embed the Plane Finder playback map on your website to offer visitors a more interactive experience. We suggest using the following HTML code:

<iframe src="//planefinder.net/data/report/PK731-AP-BMS-7700-squawk-2018-10-10/map" width="800" height="600" seamless="seamless"></iframe>

Where our data comes from

Plane Finder has a global network of data feeds and antenna radars that receive data broadcast directly from aircraft. The primary technologies used are ADS-B and MLAT. We also show feeds from the FAA and a FLARM glider feed.

Click here to find out more about the Plane Finder network.

How we collect our data